createdAt,value
2022-11-30T00:01:44.291Z,32.00
2022-11-30T00:04:12.518Z,30.17
2022-11-30T00:06:44.098Z,30.43
2022-11-30T00:09:15.539Z,29.00
2022-11-30T00:11:45.168Z,27.53
2022-11-30T00:14:13.321Z,28.73
2022-11-30T00:16:41.739Z,28.20
2022-11-30T00:19:10.212Z,28.13
2022-11-30T00:21:38.490Z,25.10
2022-11-30T00:24:07.197Z,30.83
2022-11-30T00:26:35.378Z,28.10
2022-11-30T00:29:05.270Z,29.10
2022-11-30T00:31:33.813Z,28.23
2022-11-30T00:34:02.084Z,26.90
2022-11-30T00:36:30.378Z,29.80
2022-11-30T00:38:58.555Z,25.23
2022-11-30T00:41:27.038Z,29.07
2022-11-30T00:43:55.450Z,26.67
2022-11-30T00:46:25.089Z,29.07
2022-11-30T00:48:53.153Z,28.80
2022-11-30T00:51:21.303Z,30.10
2022-11-30T00:53:49.432Z,31.27
2022-11-30T00:56:17.741Z,28.07
2022-11-30T00:58:45.872Z,28.43
2022-11-30T01:01:14.018Z,29.33
2022-11-30T01:03:43.706Z,28.30
2022-11-30T01:06:11.965Z,24.93
2022-11-30T01:08:40.070Z,30.47
2022-11-30T01:11:09.729Z,29.70
2022-11-30T01:13:38.156Z,26.83
2022-11-30T01:16:10.342Z,27.30
2022-11-30T01:18:38.914Z,27.07
2022-11-30T01:21:10.141Z,27.27
2022-11-30T01:23:38.863Z,29.27
2022-11-30T01:26:07.897Z,31.47
2022-11-30T01:28:36.779Z,29.73
2022-11-30T01:31:06.150Z,28.90
2022-11-30T01:33:34.985Z,29.30
2022-11-30T01:36:04.040Z,32.33
2022-11-30T01:38:37.706Z,28.07
2022-11-30T01:41:08.361Z,32.13
2022-11-30T01:43:41.141Z,28.50
2022-11-30T01:46:19.767Z,32.97
2022-11-30T01:48:48.612Z,35.33
2022-11-30T01:51:17.109Z,32.80
2022-11-30T01:53:47.179Z,36.13
2022-11-30T01:56:15.910Z,30.70
2022-11-30T01:58:44.392Z,35.30
2022-11-30T02:01:12.994Z,36.33
2022-11-30T02:03:43.285Z,36.83
2022-11-30T02:06:12.111Z,34.70
2022-11-30T02:08:40.651Z,34.87
2022-11-30T02:11:14.597Z,34.70
2022-11-30T02:13:48.496Z,37.07
2022-11-30T02:16:21.837Z,39.70
2022-11-30T02:18:56.260Z,39.80
2022-11-30T02:21:26.745Z,40.23
2022-11-30T02:24:12.837Z,37.50
2022-11-30T02:26:51.211Z,38.63
2022-11-30T02:33:14.160Z,38.57
2022-11-30T02:35:44.500Z,36.00
2022-11-30T02:38:13.488Z,40.03
2022-11-30T02:40:41.918Z,41.27
2022-11-30T02:43:10.536Z,40.30
2022-11-30T02:45:43.719Z,40.50
2022-11-30T02:48:13.115Z,35.37
2022-11-30T02:50:43.081Z,36.40
2022-11-30T02:53:11.669Z,36.87
2022-11-30T02:55:40.057Z,38.03
2022-11-30T02:58:08.687Z,37.23
2022-11-30T03:00:37.187Z,37.00
2022-11-30T03:03:07.322Z,39.27
2022-11-30T03:05:35.987Z,38.80
2022-11-30T03:08:04.448Z,40.37
2022-11-30T03:10:32.907Z,35.67
2022-11-30T03:13:01.555Z,36.03
2022-11-30T03:15:29.998Z,35.27
2022-11-30T03:17:58.397Z,34.83
2022-11-30T03:20:28.241Z,34.13
2022-11-30T03:22:56.359Z,33.83
2022-11-30T03:25:24.429Z,32.40
2022-11-30T03:27:52.555Z,34.37
2022-11-30T03:30:20.967Z,34.13
2022-11-30T03:32:49.080Z,34.67
2022-11-30T03:35:17.263Z,36.00
2022-11-30T03:37:49.215Z,31.23
2022-11-30T03:40:17.541Z,33.40
2022-11-30T03:42:45.737Z,32.97
2022-11-30T03:45:13.849Z,30.53
2022-11-30T03:47:41.976Z,32.87
2022-11-30T03:50:11.169Z,31.47
2022-11-30T03:52:39.390Z,32.70
2022-11-30T03:55:10.373Z,34.20
2022-11-30T03:57:38.457Z,33.40
2022-11-30T04:00:08.659Z,35.93
2022-11-30T04:02:44.876Z,31.57
2022-11-30T04:05:13.664Z,35.97
2022-11-30T04:07:42.563Z,31.43
2022-11-30T04:10:13.204Z,33.67
2022-11-30T04:12:42.962Z,29.57
2022-11-30T04:15:11.905Z,35.17
2022-11-30T04:17:40.506Z,30.87
2022-11-30T04:20:09.340Z,34.83
2022-11-30T04:22:37.761Z,34.03
2022-11-30T04:25:06.479Z,32.73
2022-11-30T04:27:36.286Z,32.40
2022-11-30T04:30:06.010Z,33.27
2022-11-30T04:32:34.440Z,33.53
2022-11-30T04:35:02.875Z,32.30
2022-11-30T04:37:31.552Z,31.43
2022-11-30T04:40:00.007Z,33.53
2022-11-30T04:42:28.675Z,33.43
2022-11-30T04:44:58.465Z,32.57
2022-11-30T04:47:29.847Z,32.93
2022-11-30T04:49:58.311Z,35.00
2022-11-30T04:52:26.800Z,34.33
2022-11-30T04:54:56.909Z,33.70
2022-11-30T04:57:25.558Z,33.77
2022-11-30T04:59:53.986Z,33.73
2022-11-30T05:02:23.816Z,34.20
2022-11-30T05:04:52.249Z,32.63
2022-11-30T05:07:20.870Z,31.27
2022-11-30T05:09:49.372Z,30.83
2022-11-30T05:12:17.998Z,32.33
2022-11-30T05:14:46.912Z,33.00
2022-11-30T05:17:15.855Z,32.23
2022-11-30T05:19:45.718Z,31.63
2022-11-30T05:22:14.176Z,32.87
2022-11-30T05:24:42.712Z,32.23
2022-11-30T05:27:16.661Z,33.00
2022-11-30T05:29:47.830Z,34.13
2022-11-30T05:32:16.259Z,32.50
2022-11-30T05:34:51.119Z,33.87
2022-11-30T05:37:20.188Z,34.50
2022-11-30T05:39:48.676Z,32.17
2022-11-30T05:42:17.482Z,33.53
2022-11-30T05:44:48.027Z,32.37
2022-11-30T05:47:17.040Z,35.10
2022-11-30T05:49:46.902Z,30.87
2022-11-30T05:52:15.637Z,30.20
2022-11-30T05:54:46.620Z,34.33
2022-11-30T05:57:15.683Z,30.67
2022-11-30T05:59:44.076Z,30.90
2022-11-30T06:02:12.586Z,33.17
2022-11-30T06:04:41.039Z,33.67
2022-11-30T06:07:11.971Z,35.57
2022-11-30T06:09:40.839Z,33.03
2022-11-30T06:12:09.628Z,32.87
2022-11-30T06:14:38.041Z,32.57
2022-11-30T06:17:06.869Z,32.27
2022-11-30T06:19:36.331Z,34.50
2022-11-30T06:22:04.883Z,30.33
2022-11-30T06:24:35.384Z,29.63
2022-11-30T06:27:03.883Z,32.27
2022-11-30T06:29:32.625Z,34.07
2022-11-30T06:32:01.440Z,31.17
2022-11-30T06:34:32.307Z,34.53
2022-11-30T06:37:00.739Z,33.03
2022-11-30T06:39:58.013Z,33.13
2022-11-30T06:42:19.907Z,34.13
2022-11-30T06:44:49.595Z,34.33
2022-11-30T06:47:18.203Z,31.97
2022-11-30T06:49:46.633Z,30.40
2022-11-30T06:52:15.321Z,32.87
2022-11-30T06:54:44.035Z,32.37
2022-11-30T06:57:12.662Z,32.60
2022-11-30T06:59:43.618Z,30.90
2022-11-30T07:02:17.518Z,30.47
2022-11-30T07:04:47.416Z,32.93
2022-11-30T07:07:16.379Z,32.07
2022-11-30T07:09:44.930Z,30.73
2022-11-30T07:12:13.638Z,30.70
2022-11-30T07:14:43.498Z,30.50
2022-11-30T07:17:11.950Z,28.77
2022-11-30T07:19:40.328Z,27.90
2022-11-30T07:22:08.855Z,31.07
2022-11-30T07:24:54.905Z,28.03
2022-11-30T07:27:23.970Z,28.47
2022-11-30T07:29:54.177Z,26.97
2022-11-30T07:32:22.752Z,25.53
2022-11-30T07:34:51.347Z,28.57
2022-11-30T07:37:19.752Z,24.73
2022-11-30T07:39:48.250Z,27.00
2022-11-30T07:42:17.659Z,25.13
2022-11-30T07:44:46.523Z,25.00
2022-11-30T07:47:16.484Z,24.40
2022-11-30T07:49:44.830Z,25.43
2022-11-30T07:52:13.260Z,23.07
2022-11-30T07:54:41.729Z,22.93
2022-11-30T07:57:10.453Z,22.87
2022-11-30T07:59:38.891Z,21.77
2022-11-30T08:02:07.476Z,20.27
2022-11-30T08:04:37.524Z,20.27
2022-11-30T08:07:05.955Z,18.43
2022-11-30T08:09:34.480Z,17.63
2022-11-30T08:12:03.036Z,18.50
2022-11-30T08:14:37.648Z,15.53
2022-11-30T08:17:19.040Z,17.00
2022-11-30T08:19:48.825Z,14.70
2022-11-30T08:22:17.254Z,14.70
2022-11-30T08:24:45.726Z,13.73
2022-11-30T08:27:14.166Z,14.40
2022-11-30T08:29:42.598Z,14.17
2022-11-30T08:32:11.007Z,13.27
2022-11-30T08:34:39.688Z,13.17
2022-11-30T08:37:09.597Z,13.33
2022-11-30T08:39:39.012Z,12.50
2022-11-30T08:42:07.559Z,13.97
2022-11-30T08:44:35.996Z,11.80
2022-11-30T08:47:04.350Z,11.83
2022-11-30T08:49:32.847Z,12.63
2022-11-30T08:52:18.111Z,12.77
2022-11-30T08:54:49.167Z,11.77
2022-11-30T08:57:18.544Z,12.37
2022-11-30T08:59:46.875Z,11.10
2022-11-30T09:02:18.658Z,10.67
2022-11-30T09:04:49.264Z,9.90
2022-11-30T09:07:18.377Z,10.53
2022-11-30T09:09:48.495Z,10.33
2022-11-30T09:12:16.964Z,11.03
2022-11-30T09:14:49.626Z,11.37
2022-11-30T09:17:21.192Z,10.23
2022-11-30T09:19:49.582Z,10.33
2022-11-30T09:22:18.415Z,9.47
2022-11-30T09:24:48.371Z,10.27
2022-11-30T09:27:17.452Z,11.60
2022-11-30T09:29:45.868Z,11.30
2022-11-30T09:32:14.278Z,11.40
2022-11-30T09:34:44.139Z,10.73
2022-11-30T09:37:12.614Z,11.17
2022-11-30T09:39:41.066Z,11.77
2022-11-30T09:42:29.994Z,11.97
2022-11-30T09:45:02.163Z,13.37
2022-11-30T09:47:39.463Z,12.00
2022-11-30T09:50:12.551Z,12.07
2022-11-30T09:52:42.745Z,12.17
2022-11-30T09:55:12.708Z,10.30
2022-11-30T09:57:49.048Z,11.07
2022-11-30T10:00:19.499Z,10.90
2022-11-30T10:02:49.818Z,10.63
2022-11-30T10:05:21.890Z,11.27
2022-11-30T10:08:25.525Z,12.03
2022-11-30T10:11:01.715Z,11.93
2022-11-30T10:13:43.170Z,11.33
2022-11-30T10:16:21.915Z,11.70
2022-11-30T10:18:58.731Z,12.93
2022-11-30T10:21:42.040Z,12.77
2022-11-30T10:24:19.673Z,12.60
2022-11-30T10:26:54.821Z,12.20
2022-11-30T10:29:30.303Z,12.73
2022-11-30T10:31:59.869Z,12.33
2022-11-30T10:34:33.604Z,12.57
2022-11-30T10:37:03.016Z,13.93
2022-11-30T10:39:34.693Z,12.73
2022-11-30T10:42:09.696Z,13.43
2022-11-30T10:44:40.880Z,13.17
2022-11-30T10:47:14.119Z,13.53
2022-11-30T10:49:47.090Z,12.93
2022-11-30T10:52:19.962Z,11.87
2022-11-30T10:54:49.531Z,11.67
2022-11-30T10:57:18.133Z,12.20
2022-11-30T10:59:51.042Z,11.60
2022-11-30T11:02:37.443Z,12.10
2022-11-30T11:05:24.429Z,10.67
2022-11-30T11:08:03.005Z,11.43
2022-11-30T11:10:36.866Z,11.57
2022-11-30T11:13:06.638Z,11.93
2022-11-30T11:15:36.794Z,12.63
2022-11-30T11:18:23.795Z,12.97
2022-11-30T11:21:06.302Z,13.43
2022-11-30T11:23:38.022Z,11.20
2022-11-30T11:26:07.916Z,10.50
2022-11-30T11:28:38.247Z,11.07
2022-11-30T11:31:20.252Z,10.97
2022-11-30T11:33:53.860Z,12.77
2022-11-30T11:36:28.971Z,10.67
2022-11-30T11:38:57.987Z,11.20
2022-11-30T11:41:29.139Z,11.57
2022-11-30T11:44:02.386Z,12.17
2022-11-30T11:46:33.238Z,11.90
2022-11-30T11:49:03.911Z,10.57
2022-11-30T11:51:34.149Z,12.17
2022-11-30T11:54:08.257Z,12.00
2022-11-30T11:56:38.259Z,11.33
2022-11-30T11:59:16.649Z,12.50
2022-11-30T12:01:54.741Z,11.43
2022-11-30T12:04:43.936Z,10.37
2022-11-30T12:07:29.813Z,12.17
2022-11-30T12:10:28.165Z,12.13
2022-11-30T12:12:56.082Z,12.97
2022-11-30T12:15:28.566Z,11.43
2022-11-30T12:18:02.832Z,12.50
2022-11-30T12:20:35.848Z,13.43
2022-11-30T12:23:18.963Z,12.67
2022-11-30T12:25:49.953Z,13.23
2022-11-30T12:28:24.188Z,13.50
2022-11-30T12:31:01.338Z,13.53
2022-11-30T12:33:45.643Z,12.77
2022-11-30T12:36:21.078Z,12.03
2022-11-30T12:38:50.864Z,13.00
2022-11-30T12:41:31.764Z,13.87
2022-11-30T12:44:11.566Z,14.00
2022-11-30T12:46:45.520Z,15.37
2022-11-30T12:49:28.245Z,14.40
2022-11-30T12:52:05.643Z,14.83
2022-11-30T12:54:41.974Z,14.40
2022-11-30T12:57:17.261Z,15.23
2022-11-30T12:59:54.922Z,14.53
2022-11-30T13:02:46.871Z,14.23
2022-11-30T13:05:21.363Z,14.20
2022-11-30T13:07:55.552Z,14.63
2022-11-30T13:10:31.279Z,14.97
2022-11-30T13:13:01.193Z,15.13
2022-11-30T13:15:32.026Z,16.10
2022-11-30T13:18:01.856Z,15.43
2022-11-30T13:20:37.017Z,15.70
2022-11-30T13:23:08.280Z,14.27
2022-11-30T13:28:33.307Z,14.50
2022-11-30T13:31:05.859Z,15.20
2022-11-30T13:33:48.166Z,15.23
2022-11-30T13:36:40.162Z,15.77
2022-11-30T13:39:26.216Z,15.33
2022-11-30T13:42:09.582Z,14.83
2022-11-30T13:44:38.888Z,14.83
2022-11-30T13:47:08.729Z,15.17
2022-11-30T13:49:38.138Z,14.13
2022-11-30T13:52:24.325Z,15.17
2022-11-30T13:54:55.571Z,16.00
2022-11-30T13:57:42.710Z,16.13
2022-11-30T14:00:29.899Z,15.80
2022-11-30T14:02:59.310Z,15.43
2022-11-30T14:05:37.819Z,14.27
2022-11-30T14:08:39.467Z,14.47
2022-11-30T14:11:26.789Z,15.40
2022-11-30T14:13:56.594Z,15.27
2022-11-30T14:16:27.694Z,13.97
2022-11-30T14:18:57.881Z,14.07
2022-11-30T14:21:28.024Z,15.00
2022-11-30T14:23:58.050Z,15.63
2022-11-30T14:26:29.837Z,15.43
2022-11-30T14:29:11.073Z,15.33
2022-11-30T14:31:42.530Z,15.40
2022-11-30T14:34:13.238Z,16.17
2022-11-30T14:36:44.842Z,16.37
2022-11-30T14:39:26.749Z,15.37
2022-11-30T14:41:55.518Z,16.50
2022-11-30T14:44:25.599Z,15.33
2022-11-30T14:46:54.206Z,15.73
2022-11-30T14:49:23.462Z,16.77
2022-11-30T14:51:52.866Z,17.30
2022-11-30T14:54:25.843Z,15.90
2022-11-30T14:56:58.892Z,14.37
2022-11-30T14:59:33.774Z,16.97
2022-11-30T15:02:03.603Z,15.87
2022-11-30T15:04:32.454Z,15.70
2022-11-30T15:07:02.294Z,16.63
2022-11-30T15:09:33.150Z,15.33
2022-11-30T15:12:01.729Z,16.00
2022-11-30T15:14:32.935Z,17.27
2022-11-30T15:17:02.593Z,16.53
2022-11-30T15:19:31.824Z,16.03
2022-11-30T15:22:00.856Z,15.97
2022-11-30T15:24:30.264Z,15.67
2022-11-30T15:27:02.096Z,14.37
2022-11-30T15:29:36.487Z,15.90
2022-11-30T15:32:06.761Z,14.47
2022-11-30T15:34:42.387Z,15.27
2022-11-30T15:37:10.813Z,14.47
2022-11-30T15:39:41.094Z,15.90
2022-11-30T15:42:09.603Z,15.83
2022-11-30T15:44:44.188Z,16.07
2022-11-30T15:47:26.216Z,15.77
2022-11-30T15:49:55.442Z,16.13
2022-11-30T15:52:27.406Z,16.33
2022-11-30T15:54:56.513Z,17.13
2022-11-30T15:57:25.914Z,17.40
2022-11-30T16:00:10.254Z,15.73
2022-11-30T16:02:39.193Z,15.50
2022-11-30T16:05:14.122Z,15.10
2022-11-30T16:07:50.457Z,14.93
2022-11-30T16:10:22.497Z,16.10
2022-11-30T16:12:52.618Z,14.83
2022-11-30T16:15:24.335Z,14.13
2022-11-30T16:17:54.945Z,15.50
2022-11-30T16:20:24.068Z,15.27
2022-11-30T16:22:52.859Z,15.30
2022-11-30T16:25:25.301Z,16.03
2022-11-30T16:27:53.972Z,15.83
2022-11-30T16:30:24.779Z,15.63
2022-11-30T16:32:53.376Z,16.07
2022-11-30T16:35:23.318Z,16.60
2022-11-30T16:37:52.320Z,16.77
2022-11-30T16:40:22.926Z,16.50
2022-11-30T16:42:52.340Z,16.00
2022-11-30T16:45:23.954Z,16.70
2022-11-30T16:47:52.929Z,17.47
2022-11-30T16:50:21.305Z,17.37
2022-11-30T16:52:49.508Z,18.57
2022-11-30T16:55:19.732Z,18.23
2022-11-30T16:57:48.591Z,16.93
2022-11-30T17:00:20.585Z,16.17
2022-11-30T17:02:58.008Z,17.37
2022-11-30T17:05:26.962Z,17.70
2022-11-30T17:07:58.451Z,17.27
2022-11-30T17:10:26.861Z,17.60
2022-11-30T17:12:55.291Z,18.40
2022-11-30T17:15:24.689Z,17.67
2022-11-30T17:17:57.614Z,17.77
2022-11-30T17:20:26.202Z,17.97
2022-11-30T17:22:54.462Z,18.00
2022-11-30T17:25:24.626Z,18.53
2022-11-30T17:27:53.026Z,17.77
2022-11-30T17:30:22.470Z,17.03
2022-11-30T17:32:50.775Z,17.97
2022-11-30T17:35:20.832Z,17.03
2022-11-30T17:37:48.997Z,17.37
2022-11-30T17:40:17.305Z,16.47
2022-11-30T17:42:45.869Z,16.83
2022-11-30T17:45:14.259Z,17.63
2022-11-30T17:47:42.424Z,16.43
2022-11-30T17:50:11.418Z,18.07
2022-11-30T17:52:40.890Z,18.30
2022-11-30T17:55:09.786Z,17.60
2022-11-30T17:57:39.546Z,16.47
2022-11-30T18:00:08.862Z,17.93
2022-11-30T18:02:37.052Z,17.60
2022-11-30T18:05:07.552Z,19.03
2022-11-30T18:07:38.078Z,18.30
2022-11-30T18:10:09.388Z,19.47
2022-11-30T18:12:37.950Z,19.77
2022-11-30T18:15:06.999Z,18.90
2022-11-30T18:17:35.628Z,19.07
2022-11-30T18:20:04.026Z,18.80
2022-11-30T18:22:32.910Z,19.37
2022-11-30T18:25:01.427Z,19.47
2022-11-30T18:27:31.326Z,18.90
2022-11-30T18:30:00.104Z,19.43
2022-11-30T18:32:28.545Z,20.83
2022-11-30T18:34:57.106Z,20.57
2022-11-30T18:37:25.486Z,21.20
2022-11-30T18:39:53.933Z,20.60
2022-11-30T18:42:22.640Z,20.80
2022-11-30T18:44:52.434Z,20.40
2022-11-30T18:47:21.873Z,20.50
2022-11-30T18:49:50.274Z,20.87
2022-11-30T18:52:18.790Z,21.13
2022-11-30T18:54:47.492Z,21.60
2022-11-30T18:57:16.389Z,20.63
2022-11-30T18:59:46.733Z,20.67
2022-11-30T19:02:19.153Z,21.00
2022-11-30T19:04:47.830Z,20.97
2022-11-30T19:07:19.593Z,20.33
2022-11-30T19:09:48.052Z,18.70
2022-11-30T19:12:17.584Z,20.10
2022-11-30T19:14:46.406Z,19.00
2022-11-30T19:17:15.088Z,19.70
2022-11-30T19:19:44.882Z,19.53
2022-11-30T19:22:13.470Z,19.43
2022-11-30T19:24:41.865Z,19.27
2022-11-30T19:27:10.263Z,19.23
2022-11-30T19:29:38.730Z,19.37
2022-11-30T19:32:07.248Z,19.27
2022-11-30T19:34:36.091Z,19.33
2022-11-30T19:37:05.872Z,18.17
2022-11-30T19:39:34.327Z,19.27
2022-11-30T19:42:02.762Z,18.37
2022-11-30T19:44:31.157Z,19.67
2022-11-30T19:46:59.614Z,18.13
2022-11-30T19:49:28.048Z,20.53
2022-11-30T19:51:56.511Z,18.97
2022-11-30T19:54:26.301Z,17.63
2022-11-30T19:56:59.563Z,19.07
2022-11-30T19:59:27.995Z,19.07
2022-11-30T20:01:56.450Z,17.97
2022-11-30T20:04:25.063Z,18.57
2022-11-30T20:06:53.473Z,20.93
2022-11-30T20:09:21.876Z,19.67
2022-11-30T20:11:51.677Z,20.20
2022-11-30T20:14:22.424Z,20.57
2022-11-30T20:16:52.759Z,18.90
2022-11-30T20:19:21.220Z,19.67
2022-11-30T20:21:49.829Z,20.10
2022-11-30T20:24:18.316Z,20.47
2022-11-30T20:26:46.783Z,20.43
2022-11-30T20:29:17.983Z,21.33
2022-11-30T20:31:47.257Z,22.03
2022-11-30T20:34:16.097Z,20.70
2022-11-30T20:36:46.356Z,21.13
2022-11-30T20:39:14.796Z,20.73
2022-11-30T20:41:43.699Z,17.43
2022-11-30T20:44:14.902Z,20.67
2022-11-30T20:46:45.194Z,22.07
2022-11-30T20:49:17.422Z,20.33
2022-11-30T20:51:47.021Z,21.93
2022-11-30T20:54:16.115Z,22.73
2022-11-30T20:56:45.047Z,20.80
2022-11-30T20:59:16.684Z,21.03
2022-11-30T21:01:47.357Z,21.73
2022-11-30T21:04:15.799Z,22.63
2022-11-30T21:06:45.426Z,21.90
2022-11-30T21:09:14.707Z,21.57
2022-11-30T21:11:43.284Z,22.40
2022-11-30T21:14:12.044Z,22.80
2022-11-30T21:16:41.635Z,22.40
2022-11-30T21:19:11.842Z,20.97
2022-11-30T21:21:40.458Z,22.03
2022-11-30T21:24:10.440Z,20.77
2022-11-30T21:26:39.951Z,21.33
2022-11-30T21:29:09.262Z,20.83
2022-11-30T21:31:40.371Z,20.90
2022-11-30T21:34:11.621Z,21.27
2022-11-30T21:36:42.592Z,20.70
2022-11-30T21:39:11.429Z,21.07
2022-11-30T21:41:40.884Z,21.13
2022-11-30T21:44:10.161Z,21.57
2022-11-30T21:46:38.863Z,21.07
2022-11-30T21:49:07.603Z,20.37
2022-11-30T21:51:36.045Z,21.10
2022-11-30T21:54:06.638Z,22.10
2022-11-30T21:56:35.883Z,20.87
2022-11-30T21:59:05.851Z,21.47
2022-11-30T22:01:35.164Z,21.90
2022-11-30T22:04:04.703Z,21.37
2022-11-30T22:06:33.903Z,21.50
2022-11-30T22:09:07.822Z,21.57
2022-11-30T22:11:39.473Z,21.73
2022-11-30T22:14:08.495Z,21.97
2022-11-30T22:16:37.017Z,21.63
2022-11-30T22:19:06.746Z,20.73
2022-11-30T22:21:35.447Z,22.80
2022-11-30T22:24:04.841Z,23.20
2022-11-30T22:26:33.958Z,21.67
2022-11-30T22:29:04.982Z,23.17
2022-11-30T22:31:34.956Z,22.33
2022-11-30T22:34:04.529Z,21.70
2022-11-30T22:36:33.550Z,22.70
2022-11-30T22:39:03.108Z,21.97
2022-11-30T22:41:31.587Z,20.87
2022-11-30T22:44:00.445Z,22.17
2022-11-30T22:46:31.611Z,21.77
2022-11-30T22:49:00.877Z,23.13
2022-11-30T22:51:29.852Z,21.90
2022-11-30T22:53:58.502Z,23.07
2022-11-30T22:56:27.536Z,21.87
2022-11-30T22:58:58.753Z,22.90
2022-11-30T23:01:27.840Z,22.23
2022-11-30T23:03:58.444Z,22.30
2022-11-30T23:06:26.875Z,20.90
2022-11-30T23:08:55.293Z,20.43
2022-11-30T23:11:24.690Z,21.73
2022-11-30T23:13:53.147Z,21.70
2022-11-30T23:16:22.089Z,22.33
2022-11-30T23:18:51.569Z,22.87
2022-11-30T23:21:22.077Z,23.23
2022-11-30T23:23:50.555Z,23.37
2022-11-30T23:26:20.027Z,22.20
2022-11-30T23:28:49.157Z,22.67
2022-11-30T23:31:33.677Z,23.60
2022-11-30T23:34:05.997Z,23.83
2022-11-30T23:36:35.980Z,23.50
2022-11-30T23:39:05.353Z,23.20
2022-11-30T23:41:34.646Z,25.13
2022-11-30T23:44:03.445Z,23.63
2022-11-30T23:46:32.214Z,23.93
2022-11-30T23:49:03.306Z,25.43
2022-11-30T23:51:31.855Z,24.63
2022-11-30T23:54:01.672Z,24.77
2022-11-30T23:56:30.054Z,23.57
2022-11-30T23:58:58.489Z,24.13
